createdAt,value
2018-07-21T00:00:31.740Z,18.84
2018-07-21T00:03:00.215Z,18.88
2018-07-21T00:05:28.713Z,18.86
2018-07-21T00:08:26.181Z,18.85
2018-07-21T00:11:33.378Z,18.88
2018-07-21T00:14:01.872Z,18.84
2018-07-21T00:16:30.509Z,18.82
2018-07-21T00:18:58.941Z,18.84
2018-07-21T00:21:27.493Z,18.86
2018-07-21T00:23:55.947Z,18.93
2018-07-21T00:26:24.389Z,18.95
2018-07-21T00:28:53.108Z,18.99
2018-07-21T00:31:21.548Z,19.02
2018-07-21T00:33:50.012Z,19.04
2018-07-21T00:36:18.495Z,19.01
2018-07-21T00:38:46.971Z,18.95
2018-07-21T00:41:15.443Z,18.94
2018-07-21T00:43:43.929Z,18.94
2018-07-21T00:46:12.426Z,18.92
2018-07-21T00:49:15.413Z,18.93
2018-07-21T00:51:44.031Z,19.02
2018-07-21T00:54:12.671Z,19.07
2018-07-21T00:56:41.163Z,19.10
2018-07-21T00:59:09.830Z,19.14
2018-07-21T01:01:38.265Z,19.19
2018-07-21T01:04:07.782Z,19.24
2018-07-21T01:06:36.352Z,19.29
2018-07-21T01:09:07.335Z,19.28
2018-07-21T01:11:35.838Z,19.30
2018-07-21T01:14:04.426Z,19.31
2018-07-21T01:16:33.030Z,19.32
2018-07-21T01:19:16.097Z,19.36
2018-07-21T01:21:44.609Z,19.38
2018-07-21T01:24:13.877Z,19.39
2018-07-21T01:26:42.397Z,19.37
2018-07-21T01:29:10.977Z,19.38
2018-07-21T01:31:39.464Z,19.36
2018-07-21T01:34:08.043Z,19.40
2018-07-21T01:36:36.806Z,19.40
2018-07-21T01:39:08.186Z,19.33
2018-07-21T01:41:36.800Z,19.34
2018-07-21T01:44:05.352Z,19.33
2018-07-21T01:46:33.881Z,19.34
2018-07-21T01:49:02.429Z,19.34
2018-07-21T01:51:31.193Z,19.38
2018-07-21T01:53:59.689Z,19.41
2018-07-21T01:56:28.155Z,19.45
2018-07-21T01:58:56.657Z,19.46
2018-07-21T02:01:25.222Z,19.49
2018-07-21T02:03:53.707Z,19.50
2018-07-21T02:06:22.425Z,19.51
2018-07-21T02:08:50.879Z,19.49
2018-07-21T02:11:19.615Z,19.48
2018-07-21T02:13:48.164Z,19.44
2018-07-21T02:16:16.754Z,19.42
2018-07-21T02:18:45.256Z,19.43
2018-07-21T02:21:13.792Z,19.44
2018-07-21T02:23:42.426Z,19.44
2018-07-21T02:26:10.858Z,19.42
2018-07-21T02:28:39.283Z,19.42
2018-07-21T02:31:07.731Z,19.41
2018-07-21T02:33:36.157Z,19.39
2018-07-21T02:36:04.736Z,19.37
2018-07-21T02:38:33.246Z,19.35
2018-07-21T02:41:01.676Z,19.34
2018-07-21T02:43:30.193Z,19.34
2018-07-21T02:45:58.725Z,19.34
2018-07-21T02:48:27.213Z,19.32
2018-07-21T02:50:55.785Z,19.32
2018-07-21T02:53:24.371Z,19.33
2018-07-21T02:55:52.850Z,19.30
2018-07-21T02:58:21.322Z,19.25
2018-07-21T03:00:49.859Z,19.19
2018-07-21T03:03:18.392Z,19.15
2018-07-21T03:05:46.974Z,19.11
2018-07-21T03:08:15.509Z,19.11
2018-07-21T03:10:45.114Z,19.14
2018-07-21T03:13:13.653Z,19.13
2018-07-21T03:15:42.145Z,19.13
2018-07-21T03:18:10.662Z,19.12
2018-07-21T03:20:39.724Z,19.14
2018-07-21T03:23:08.178Z,19.17
2018-07-21T03:25:37.900Z,19.13
2018-07-21T03:28:06.427Z,19.07
2018-07-21T03:30:34.845Z,19.01
2018-07-21T03:33:03.346Z,18.96
2018-07-21T03:35:31.858Z,18.89
2018-07-21T03:38:00.427Z,18.84
2018-07-21T03:40:29.020Z,18.76
2018-07-21T03:42:57.458Z,18.72
2018-07-21T03:45:26.172Z,18.61
2018-07-21T03:47:55.141Z,18.45
2018-07-21T03:50:30.828Z,18.31
2018-07-21T03:52:59.384Z,18.26
2018-07-21T03:55:27.906Z,18.23
2018-07-21T03:57:56.370Z,18.18
2018-07-21T04:00:24.952Z,18.12
2018-07-21T04:02:53.426Z,18.06
2018-07-21T04:05:21.960Z,17.99
2018-07-21T04:07:50.622Z,17.97
2018-07-21T04:10:19.180Z,17.97
2018-07-21T04:12:47.589Z,17.91
2018-07-21T04:15:16.140Z,17.75
2018-07-21T04:17:45.148Z,17.78
2018-07-21T04:20:13.575Z,17.86
2018-07-21T04:22:42.159Z,17.99
2018-07-21T04:25:10.585Z,18.03
2018-07-21T04:27:39.064Z,18.08
2018-07-21T04:30:07.563Z,18.09
2018-07-21T04:32:36.028Z,18.03
2018-07-21T04:35:05.604Z,18.03
2018-07-21T04:37:34.038Z,18.04
2018-07-21T04:40:02.739Z,18.06
2018-07-21T04:42:31.277Z,18.12
2018-07-21T04:44:59.749Z,18.13
2018-07-21T04:47:28.220Z,18.15
2018-07-21T04:49:56.678Z,18.20
2018-07-21T04:52:25.218Z,18.27
2018-07-21T04:54:53.646Z,18.34
2018-07-21T04:57:22.093Z,18.44
2018-07-21T04:59:58.528Z,18.54
2018-07-21T05:02:27.047Z,18.64
2018-07-21T05:04:55.518Z,18.74
2018-07-21T05:07:24.004Z,18.85
2018-07-21T05:09:52.509Z,18.93
2018-07-21T05:12:20.953Z,19.02
2018-07-21T05:14:49.526Z,19.09
2018-07-21T05:17:18.014Z,19.21
2018-07-21T05:19:46.544Z,19.26
2018-07-21T05:22:15.085Z,19.34
2018-07-21T05:24:43.588Z,19.42
2018-07-21T05:27:12.253Z,19.48
2018-07-21T05:29:40.727Z,19.50
2018-07-21T05:32:09.249Z,19.54
2018-07-21T05:34:37.809Z,19.59
2018-07-21T05:37:06.282Z,19.64
2018-07-21T05:39:34.775Z,19.71
2018-07-21T05:42:03.289Z,19.77
2018-07-21T05:44:31.824Z,19.86
2018-07-21T05:47:00.302Z,19.92
2018-07-21T05:49:28.759Z,20.02
2018-07-21T05:51:57.433Z,20.12
2018-07-21T05:54:25.985Z,20.18
2018-07-21T05:56:54.523Z,20.25
2018-07-21T05:59:23.033Z,20.30
2018-07-21T06:01:51.524Z,20.38
2018-07-21T06:04:20.132Z,20.49
2018-07-21T06:06:48.574Z,20.51
2018-07-21T06:09:17.070Z,20.50
2018-07-21T06:11:45.641Z,20.50
2018-07-21T06:14:14.127Z,20.59
2018-07-21T06:20:04.670Z,20.74
2018-07-21T06:22:33.226Z,20.85
2018-07-21T06:25:01.703Z,20.92
2018-07-21T06:27:30.202Z,21.01
2018-07-21T06:29:58.776Z,21.08
2018-07-21T06:32:27.355Z,21.13
2018-07-21T06:34:55.945Z,21.16
2018-07-21T06:37:24.543Z,21.20
2018-07-21T06:39:53.153Z,21.27
2018-07-21T06:42:21.689Z,21.39
2018-07-21T06:44:50.266Z,21.49
2018-07-21T06:47:18.766Z,21.56
2018-07-21T06:49:47.244Z,21.63
2018-07-21T06:52:15.837Z,21.62
2018-07-21T06:54:44.254Z,21.55
2018-07-21T06:57:12.771Z,21.51
2018-07-21T06:59:41.479Z,21.50
2018-07-21T07:02:10.178Z,21.48
2018-07-21T07:04:38.690Z,21.48
2018-07-21T07:07:07.120Z,21.48
2018-07-21T07:09:35.633Z,21.43
2018-07-21T07:12:04.191Z,21.39
2018-07-21T07:14:32.763Z,21.38
2018-07-21T07:17:01.277Z,21.42
2018-07-21T07:19:29.936Z,21.53
2018-07-21T07:21:58.436Z,21.63
2018-07-21T07:24:26.901Z,21.66
2018-07-21T07:26:55.394Z,21.66
2018-07-21T07:29:23.969Z,21.71
2018-07-21T07:31:52.459Z,21.84
2018-07-21T07:34:20.937Z,21.90
2018-07-21T07:36:49.521Z,22.07
2018-07-21T07:39:18.869Z,22.13
2018-07-21T07:41:47.409Z,22.17
2018-07-21T07:44:15.873Z,22.34
2018-07-21T07:46:44.376Z,22.52
2018-07-21T07:49:12.932Z,22.63
2018-07-21T07:51:41.537Z,22.73
2018-07-21T07:54:10.050Z,22.83
2018-07-21T07:56:38.610Z,22.88
2018-07-21T07:59:07.073Z,22.93
2018-07-21T08:01:35.543Z,23.05
2018-07-21T08:04:04.079Z,23.06
2018-07-21T08:06:32.643Z,23.12
2018-07-21T08:09:01.215Z,23.17
2018-07-21T08:11:29.697Z,23.22
2018-07-21T08:13:58.403Z,23.24
2018-07-21T08:16:26.981Z,23.24
2018-07-21T08:18:55.558Z,23.26
2018-07-21T08:21:24.133Z,23.30
2018-07-21T08:23:52.612Z,23.21
2018-07-21T08:26:21.148Z,23.16
2018-07-21T08:28:49.704Z,23.18
2018-07-21T08:31:18.281Z,23.21
2018-07-21T08:33:47.053Z,23.29
2018-07-21T08:36:15.750Z,23.42
2018-07-21T08:38:44.218Z,23.47
2018-07-21T08:41:12.753Z,23.46
2018-07-21T08:43:41.318Z,23.49
2018-07-21T08:46:09.781Z,23.56
2018-07-21T08:48:38.364Z,23.70
2018-07-21T08:51:06.971Z,23.84
2018-07-21T08:53:35.730Z,23.87
2018-07-21T08:56:04.298Z,23.82
2018-07-21T08:58:32.794Z,23.86
2018-07-21T09:01:01.259Z,24.00
2018-07-21T09:03:29.706Z,24.11
2018-07-21T09:05:58.463Z,24.11
2018-07-21T09:08:26.984Z,24.25
2018-07-21T09:10:55.505Z,24.35
2018-07-21T09:13:23.990Z,24.40
2018-07-21T09:15:52.468Z,24.47
2018-07-21T09:18:20.999Z,24.55
2018-07-21T09:20:49.553Z,24.60
2018-07-21T09:23:18.103Z,24.64
2018-07-21T09:25:46.599Z,24.68
2018-07-21T09:28:15.090Z,24.76
2018-07-21T09:30:43.594Z,24.89
2018-07-21T09:33:12.054Z,24.87
2018-07-21T09:35:40.523Z,24.87
2018-07-21T09:38:09.005Z,24.85
2018-07-21T09:40:37.596Z,24.81
2018-07-21T09:43:06.956Z,24.78
2018-07-21T09:45:35.472Z,24.79
2018-07-21T09:48:04.257Z,24.92
2018-07-21T09:50:32.768Z,25.05
2018-07-21T09:53:01.320Z,25.19
2018-07-21T09:55:29.928Z,25.32
2018-07-21T09:57:58.393Z,25.47
2018-07-21T10:00:32.270Z,25.61
2018-07-21T10:03:00.800Z,25.80
2018-07-21T10:05:29.298Z,25.89
2018-07-21T10:07:57.748Z,25.96
2018-07-21T10:10:26.430Z,26.05
2018-07-21T10:12:55.166Z,26.24
2018-07-21T10:15:23.678Z,26.46
2018-07-21T10:17:52.190Z,26.54
2018-07-21T10:20:20.654Z,26.74
2018-07-21T10:22:49.148Z,26.93
2018-07-21T10:25:23.042Z,26.83
2018-07-21T10:27:56.803Z,26.93
2018-07-21T10:30:25.352Z,27.21
2018-07-21T10:32:54.072Z,27.30
2018-07-21T10:35:22.609Z,27.39
2018-07-21T10:37:51.142Z,27.41
2018-07-21T10:40:19.729Z,27.43
2018-07-21T10:42:48.258Z,27.66
2018-07-21T10:45:16.741Z,27.91
2018-07-21T10:47:45.332Z,28.03
2018-07-21T10:50:13.898Z,27.97
2018-07-21T10:52:47.819Z,27.82
2018-07-21T10:55:16.507Z,27.93
2018-07-21T10:57:45.030Z,28.24
2018-07-21T11:00:13.599Z,28.48
2018-07-21T11:02:42.144Z,28.66
2018-07-21T11:05:10.618Z,28.71
2018-07-21T11:07:39.372Z,28.86
2018-07-21T11:10:08.105Z,28.92
2018-07-21T11:12:36.603Z,28.90
2018-07-21T11:15:06.029Z,28.98
2018-07-21T11:17:34.593Z,29.22
2018-07-21T11:20:03.182Z,29.39
2018-07-21T11:22:31.782Z,29.42
2018-07-21T11:25:00.342Z,29.52
2018-07-21T11:27:28.804Z,29.78
2018-07-21T11:29:57.401Z,30.02
2018-07-21T11:32:26.077Z,30.18
2018-07-21T11:34:54.781Z,30.43
2018-07-21T11:37:23.356Z,30.54
2018-07-21T11:39:52.475Z,30.79
2018-07-21T11:42:21.128Z,31.19
2018-07-21T11:44:49.590Z,31.50
2018-07-21T11:47:18.060Z,31.73
2018-07-21T11:49:47.740Z,32.09
2018-07-21T11:52:16.255Z,32.17
2018-07-21T11:54:45.173Z,32.22
2018-07-21T11:57:13.641Z,32.25
2018-07-21T11:59:42.219Z,32.49
2018-07-21T12:02:10.824Z,32.55
2018-07-21T12:04:39.464Z,33.02
2018-07-21T12:07:07.980Z,33.33
2018-07-21T12:09:36.456Z,32.82
2018-07-21T12:12:05.176Z,32.18
2018-07-21T12:14:33.727Z,32.37
2018-07-21T12:17:02.242Z,33.04
2018-07-21T12:19:30.912Z,33.75
2018-07-21T12:21:59.443Z,34.40
2018-07-21T12:24:27.974Z,34.35
2018-07-21T12:26:56.638Z,33.09
2018-07-21T12:29:38.810Z,32.04
2018-07-21T12:32:07.331Z,31.33
2018-07-21T12:34:35.951Z,31.10
2018-07-21T12:37:04.645Z,31.22
2018-07-21T12:39:33.095Z,31.66
2018-07-21T12:42:01.559Z,31.81
2018-07-21T12:44:30.025Z,32.29
2018-07-21T12:46:58.517Z,32.09
2018-07-21T12:49:27.120Z,31.65
2018-07-21T12:51:55.692Z,31.38
2018-07-21T12:54:24.314Z,31.08
2018-07-21T12:56:52.956Z,30.92
2018-07-21T12:59:21.441Z,30.95
2018-07-21T13:01:50.620Z,30.84
2018-07-21T13:04:19.114Z,30.71
2018-07-21T13:06:47.735Z,31.18
2018-07-21T13:09:16.337Z,31.22
2018-07-21T13:11:45.536Z,31.09
2018-07-21T13:14:14.113Z,31.14
2018-07-21T13:16:42.649Z,30.83
2018-07-21T13:19:11.153Z,30.54
2018-07-21T13:21:39.649Z,30.46
2018-07-21T13:24:08.192Z,31.33
2018-07-21T13:26:36.697Z,32.15
2018-07-21T13:29:05.260Z,32.96
2018-07-21T13:31:33.898Z,33.30
2018-07-21T13:34:02.517Z,33.24
2018-07-21T13:36:31.098Z,32.95
2018-07-21T13:38:59.593Z,32.26
2018-07-21T13:41:28.035Z,31.78
2018-07-21T13:43:56.562Z,31.48
2018-07-21T13:46:25.127Z,31.37
2018-07-21T13:48:53.642Z,31.17
2018-07-21T13:51:22.206Z,30.89
2018-07-21T13:53:50.797Z,30.70
2018-07-21T13:56:19.241Z,30.44
2018-07-21T13:58:47.793Z,30.30
2018-07-21T14:01:16.417Z,30.45
2018-07-21T14:03:44.896Z,31.38
2018-07-21T14:06:13.381Z,31.89
2018-07-21T14:08:41.863Z,31.98
2018-07-21T14:11:10.352Z,32.64
2018-07-21T14:13:38.877Z,33.12
2018-07-21T14:16:17.543Z,33.29
2018-07-21T14:18:46.023Z,33.59
2018-07-21T14:21:14.460Z,33.31
2018-07-21T14:23:43.044Z,33.72
2018-07-21T14:26:11.582Z,33.76
2018-07-21T14:28:40.157Z,32.90
2018-07-21T14:31:08.770Z,32.08
2018-07-21T14:33:37.325Z,31.64
2018-07-21T14:36:06.448Z,31.19
2018-07-21T14:38:34.910Z,30.78
2018-07-21T14:41:03.507Z,30.65
2018-07-21T14:43:32.198Z,31.34
2018-07-21T14:46:00.758Z,32.19
2018-07-21T14:48:29.331Z,32.67
2018-07-21T14:50:57.797Z,32.85
2018-07-21T14:53:26.307Z,32.68
2018-07-21T14:55:54.785Z,33.03
2018-07-21T14:58:24.038Z,33.06
2018-07-21T15:00:52.508Z,33.06
2018-07-21T15:03:21.065Z,33.32
2018-07-21T15:05:49.644Z,33.39
2018-07-21T15:08:18.133Z,33.13
2018-07-21T15:10:46.702Z,32.50
2018-07-21T15:13:15.218Z,31.76
2018-07-21T15:15:43.820Z,31.23
2018-07-21T15:18:12.320Z,31.09
2018-07-21T15:20:40.911Z,30.85
2018-07-21T15:23:09.388Z,31.16
2018-07-21T15:25:37.862Z,31.82
2018-07-21T15:28:14.981Z,32.26
2018-07-21T15:30:43.577Z,32.25
2018-07-21T15:33:12.125Z,31.80
2018-07-21T15:35:40.709Z,31.46
2018-07-21T15:38:10.017Z,31.82
2018-07-21T15:40:38.487Z,31.97
2018-07-21T15:43:07.179Z,32.18
2018-07-21T15:45:35.669Z,32.58
2018-07-21T15:48:04.252Z,32.79
2018-07-21T15:50:32.741Z,32.73
2018-07-21T15:53:01.344Z,32.82
2018-07-21T15:55:29.843Z,32.81
2018-07-21T15:57:58.512Z,32.59
2018-07-21T16:00:27.055Z,32.51
2018-07-21T16:02:55.590Z,32.30
2018-07-21T16:05:24.141Z,32.22
2018-07-21T16:07:52.698Z,32.34
2018-07-21T16:10:21.276Z,32.58
2018-07-21T16:12:49.773Z,32.70
2018-07-21T16:15:18.287Z,32.80
2018-07-21T16:17:46.962Z,32.86
2018-07-21T16:20:15.522Z,32.79
2018-07-21T16:22:44.146Z,32.82
2018-07-21T16:25:12.676Z,32.29
2018-07-21T16:27:41.121Z,31.96
2018-07-21T16:30:09.681Z,32.17
2018-07-21T16:32:38.242Z,32.44
2018-07-21T16:35:06.952Z,32.62
2018-07-21T16:37:35.509Z,32.64
2018-07-21T16:40:04.241Z,32.38
2018-07-21T16:42:32.704Z,32.37
2018-07-21T16:45:01.167Z,32.42
2018-07-21T16:47:29.711Z,32.49
2018-07-21T16:49:58.188Z,32.29
2018-07-21T16:52:26.689Z,32.00
2018-07-21T16:54:55.272Z,31.55
2018-07-21T16:57:23.737Z,31.44
2018-07-21T16:59:52.321Z,31.62
2018-07-21T17:02:20.786Z,31.71
2018-07-21T17:04:49.236Z,31.69
2018-07-21T17:07:17.686Z,31.54
2018-07-21T17:09:46.298Z,31.41
2018-07-21T17:12:22.642Z,31.40
2018-07-21T17:14:51.224Z,31.44
2018-07-21T17:17:19.810Z,31.62
2018-07-21T17:19:48.273Z,31.64
2018-07-21T17:22:16.725Z,31.52
2018-07-21T17:24:45.272Z,31.29
2018-07-21T17:27:18.269Z,31.16
2018-07-21T17:29:47.075Z,31.10
2018-07-21T17:32:25.020Z,31.18
2018-07-21T17:34:53.495Z,31.17
2018-07-21T17:37:22.052Z,31.11
2018-07-21T17:39:50.557Z,31.14
2018-07-21T17:42:26.408Z,31.05
2018-07-21T17:44:54.894Z,30.87
2018-07-21T17:47:23.377Z,30.66
2018-07-21T17:50:00.256Z,30.54
2018-07-21T17:52:29.236Z,30.44
2018-07-21T17:54:57.714Z,30.33
2018-07-21T17:57:26.263Z,30.18
2018-07-21T17:59:54.797Z,30.02
2018-07-21T18:02:23.485Z,29.77
2018-07-21T18:05:04.977Z,29.67
2018-07-21T18:07:33.470Z,29.40
2018-07-21T18:10:01.931Z,29.25
2018-07-21T18:12:30.508Z,29.09
2018-07-21T18:15:00.830Z,28.85
2018-07-21T18:17:29.567Z,28.63
2018-07-21T18:19:58.158Z,28.42
2018-07-21T18:22:26.637Z,28.29
2018-07-21T18:25:06.316Z,28.07
2018-07-21T18:27:34.780Z,27.88
2018-07-21T18:30:03.272Z,27.72
2018-07-21T18:32:31.784Z,27.65
2018-07-21T18:35:01.888Z,27.56
2018-07-21T18:37:30.352Z,27.44
2018-07-21T18:39:58.832Z,27.22
2018-07-21T18:42:27.392Z,27.06
2018-07-21T18:44:56.325Z,26.95
2018-07-21T18:47:24.806Z,26.84
2018-07-21T18:49:53.286Z,26.78
2018-07-21T18:52:21.890Z,26.66
2018-07-21T18:54:50.762Z,26.58
2018-07-21T18:57:19.253Z,26.49
2018-07-21T18:59:47.952Z,26.39
2018-07-21T19:02:24.621Z,26.26
2018-07-21T19:04:53.164Z,26.16
2018-07-21T19:07:21.699Z,26.08
2018-07-21T19:09:51.176Z,25.97
2018-07-21T19:12:25.004Z,25.90
2018-07-21T19:14:53.938Z,25.77
2018-07-21T19:17:22.540Z,25.73
2018-07-21T19:19:56.394Z,25.65
2018-07-21T19:22:25.905Z,25.52
2018-07-21T19:24:54.729Z,25.43
2018-07-21T19:27:28.490Z,25.32
2018-07-21T19:29:57.380Z,25.16
2018-07-21T19:32:31.323Z,25.10
2018-07-21T19:35:00.081Z,25.05
2018-07-21T19:37:34.412Z,24.96
2018-07-21T19:40:03.255Z,24.84
2018-07-21T19:42:34.912Z,24.78
2018-07-21T19:45:03.510Z,24.68
2018-07-21T19:47:32.114Z,24.56
2018-07-21T19:50:00.529Z,24.48
2018-07-21T19:52:29.193Z,24.40
2018-07-21T19:54:57.627Z,24.35
2018-07-21T19:57:26.152Z,24.30
2018-07-21T19:59:57.814Z,24.23
2018-07-21T20:02:26.293Z,24.16
2018-07-21T20:04:55.442Z,24.11
2018-07-21T20:07:23.978Z,24.00
2018-07-21T20:09:52.574Z,23.95
2018-07-21T20:12:29.453Z,23.86
2018-07-21T20:14:58.068Z,23.83
2018-07-21T20:17:26.674Z,23.80
2018-07-21T20:19:55.181Z,23.74
2018-07-21T20:22:23.631Z,23.71
2018-07-21T20:24:52.361Z,23.68
2018-07-21T20:27:20.949Z,23.61
2018-07-21T20:29:50.229Z,23.52
2018-07-21T20:32:18.821Z,23.46
2018-07-21T20:34:48.304Z,23.40
2018-07-21T20:37:16.968Z,23.32
2018-07-21T20:39:45.552Z,23.26
2018-07-21T20:42:14.070Z,23.19
2018-07-21T20:44:42.674Z,23.13
2018-07-21T20:47:11.426Z,23.07
2018-07-21T20:49:40.024Z,23.01
2018-07-21T20:52:54.084Z,22.92
2018-07-21T20:55:57.414Z,22.84
2018-07-21T20:58:26.406Z,22.75
2018-07-21T21:00:54.989Z,22.71
2018-07-21T21:03:37.892Z,22.64
2018-07-21T21:06:06.680Z,22.57
2018-07-21T21:08:35.265Z,22.52
2018-07-21T21:11:03.792Z,22.46
2018-07-21T21:13:32.474Z,22.41
2018-07-21T21:16:01.071Z,22.35
2018-07-21T21:18:29.887Z,22.29
2018-07-21T21:20:58.516Z,22.25
2018-07-21T21:23:27.168Z,22.18
2018-07-21T21:26:00.791Z,22.15
2018-07-21T21:28:29.497Z,22.07
2018-07-21T21:30:58.050Z,22.02
2018-07-21T21:33:26.564Z,22.02
2018-07-21T21:35:55.778Z,21.98
2018-07-21T21:38:24.345Z,21.93
2018-07-21T21:40:52.955Z,21.85
2018-07-21T21:43:22.143Z,21.80
2018-07-21T21:45:50.923Z,21.72
2018-07-21T21:48:19.549Z,21.64
2018-07-21T21:50:47.986Z,21.60
2018-07-21T21:53:16.616Z,21.54
2018-07-21T21:55:45.384Z,21.47
2018-07-21T21:58:13.952Z,21.43
2018-07-21T22:01:00.820Z,21.43
2018-07-21T22:03:30.832Z,21.41
2018-07-21T22:06:00.038Z,21.34
2018-07-21T22:08:29.140Z,21.31
2018-07-21T22:10:57.847Z,21.30
2018-07-21T22:13:28.021Z,21.28
2018-07-21T22:15:56.725Z,21.21
2018-07-21T22:18:25.377Z,21.12
2018-07-21T22:20:53.899Z,21.07
2018-07-21T22:23:22.500Z,21.03
2018-07-21T22:25:51.063Z,20.94
2018-07-21T22:28:19.700Z,20.86
2018-07-21T22:30:48.270Z,20.84
2018-07-21T22:33:16.827Z,20.81
2018-07-21T22:35:45.450Z,20.80
2018-07-21T22:38:14.101Z,20.80
2018-07-21T22:40:42.663Z,20.74
2018-07-21T22:43:11.305Z,20.70
2018-07-21T22:45:54.613Z,20.60
2018-07-21T22:48:23.184Z,20.56
2018-07-21T22:50:51.856Z,20.54
2018-07-21T22:53:20.540Z,20.50
2018-07-21T22:55:49.162Z,20.44
2018-07-21T22:58:17.865Z,20.37
2018-07-21T23:00:46.485Z,20.28
2018-07-21T23:03:15.085Z,20.24
2018-07-21T23:05:43.754Z,20.24
2018-07-21T23:08:12.220Z,20.22
2018-07-21T23:10:40.650Z,20.19
2018-07-21T23:13:09.212Z,20.19
2018-07-21T23:15:37.848Z,20.17
2018-07-21T23:18:06.547Z,20.14
2018-07-21T23:20:35.066Z,20.12
2018-07-21T23:23:03.657Z,20.10
2018-07-21T23:25:32.223Z,20.07
2018-07-21T23:28:01.808Z,20.03
2018-07-21T23:30:30.324Z,19.99
2018-07-21T23:32:58.916Z,19.94
2018-07-21T23:35:27.489Z,19.90
2018-07-21T23:37:55.922Z,19.85
2018-07-21T23:40:24.385Z,19.81
2018-07-21T23:42:53.023Z,19.75
2018-07-21T23:45:21.711Z,19.68
2018-07-21T23:47:50.111Z,19.64
2018-07-21T23:50:18.612Z,19.62
2018-07-21T23:52:47.053Z,19.59
2018-07-21T23:55:15.630Z,19.56
2018-07-21T23:57:44.301Z,19.52
